createdAt,value
2022-07-28T00:00:06.263Z,17.04
2022-07-28T00:02:35.277Z,17.02
2022-07-28T00:05:01.914Z,17.01
2022-07-28T00:07:28.446Z,17.05
2022-07-28T00:10:00.180Z,16.94
2022-07-28T00:12:28.841Z,17.01
2022-07-28T00:14:55.434Z,16.91
2022-07-28T00:17:21.970Z,16.88
2022-07-28T00:19:48.847Z,16.85
2022-07-28T00:22:15.369Z,16.69
2022-07-28T00:24:42.260Z,16.82
2022-07-28T00:27:09.219Z,16.68
2022-07-28T00:29:49.864Z,16.61
2022-07-28T00:32:18.196Z,16.67
2022-07-28T00:34:45.780Z,16.63
2022-07-28T00:37:14.486Z,16.66
2022-07-28T00:39:41.704Z,16.60
2022-07-28T00:42:08.491Z,16.57
2022-07-28T00:44:35.020Z,16.55
2022-07-28T00:47:01.664Z,16.58
2022-07-28T00:49:28.952Z,16.47
2022-07-28T00:51:55.544Z,16.51
2022-07-28T00:54:22.190Z,16.46
2022-07-28T00:56:49.877Z,16.51
2022-07-28T00:59:16.396Z,16.51
2022-07-28T01:01:43.136Z,16.41
2022-07-28T01:04:09.721Z,16.29
2022-07-28T01:06:54.522Z,16.35
2022-07-28T01:09:58.442Z,16.21
2022-07-28T01:13:18.883Z,16.24
2022-07-28T01:16:11.145Z,16.19
2022-07-28T01:18:46.698Z,16.10
2022-07-28T01:21:17.901Z,16.09
2022-07-28T01:24:13.788Z,16.07
2022-07-28T01:26:51.288Z,15.95
2022-07-28T01:29:20.514Z,15.89
2022-07-28T01:31:56.323Z,15.85
2022-07-28T01:34:33.202Z,15.74
2022-07-28T01:37:07.265Z,15.84
2022-07-28T01:39:37.600Z,15.94
2022-07-28T01:42:07.348Z,15.84
2022-07-28T01:44:40.887Z,15.87
2022-07-28T01:47:09.286Z,15.90
2022-07-28T01:49:37.891Z,15.81
2022-07-28T01:52:07.174Z,15.84
2022-07-28T01:54:37.400Z,15.79
2022-07-28T01:57:05.539Z,15.71
2022-07-28T01:59:35.917Z,15.86
2022-07-28T02:02:03.338Z,15.84
2022-07-28T02:04:33.356Z,15.76
2022-07-28T02:07:02.600Z,15.58
2022-07-28T02:09:30.788Z,15.62
2022-07-28T02:11:58.092Z,15.68
2022-07-28T02:14:27.507Z,15.59
2022-07-28T02:17:11.192Z,15.56
2022-07-28T02:19:39.500Z,15.51
2022-07-28T02:22:06.900Z,15.49
2022-07-28T02:24:35.472Z,15.31
2022-07-28T02:27:13.706Z,15.24
2022-07-28T02:29:51.437Z,15.26
2022-07-28T02:32:32.178Z,15.29
2022-07-28T02:35:06.834Z,15.19
2022-07-28T02:37:41.283Z,15.24
2022-07-28T02:40:14.142Z,15.31
2022-07-28T02:42:41.925Z,15.06
2022-07-28T02:45:11.741Z,15.16
2022-07-28T02:47:44.097Z,14.98
2022-07-28T02:50:12.656Z,15.05
2022-07-28T02:52:41.803Z,15.03
2022-07-28T02:55:10.680Z,15.04
2022-07-28T02:57:40.390Z,15.00
2022-07-28T03:00:07.680Z,15.07
2022-07-28T03:02:36.748Z,14.86
2022-07-28T03:05:11.116Z,15.04
2022-07-28T03:07:41.241Z,15.14
2022-07-28T03:10:19.558Z,15.20
2022-07-28T03:13:01.074Z,15.06
2022-07-28T03:15:27.740Z,15.05
2022-07-28T03:17:54.277Z,14.96
2022-07-28T03:20:20.839Z,14.88
2022-07-28T03:22:47.386Z,14.86
2022-07-28T03:25:23.346Z,14.85
2022-07-28T03:27:52.702Z,14.96
2022-07-28T03:30:29.525Z,14.97
2022-07-28T03:32:59.839Z,15.03
2022-07-28T03:35:27.405Z,15.00
2022-07-28T03:38:10.871Z,15.02
2022-07-28T03:40:38.709Z,15.04
2022-07-28T03:43:08.307Z,15.01
2022-07-28T03:45:35.640Z,15.04
2022-07-28T03:48:02.382Z,15.01
2022-07-28T03:50:31.832Z,15.13
2022-07-28T03:53:00.223Z,15.26
2022-07-28T03:55:27.076Z,15.09
2022-07-28T03:57:53.677Z,15.17
2022-07-28T04:00:20.892Z,15.11
2022-07-28T04:02:47.686Z,15.14
2022-07-28T04:05:17.017Z,15.22
2022-07-28T04:07:44.506Z,15.19
2022-07-28T04:10:13.444Z,15.38
2022-07-28T04:12:57.222Z,15.35
2022-07-28T04:15:25.893Z,15.48
2022-07-28T04:17:53.948Z,15.54
2022-07-28T04:20:23.232Z,16.03
2022-07-28T04:22:50.542Z,17.11
2022-07-28T04:25:18.713Z,17.82
2022-07-28T04:27:45.799Z,18.60
2022-07-28T04:30:17.265Z,19.08
2022-07-28T04:32:49.097Z,19.50
2022-07-28T04:35:17.648Z,19.57
2022-07-28T04:37:45.347Z,19.85
2022-07-28T04:40:13.515Z,20.60
2022-07-28T04:42:40.870Z,20.43
2022-07-28T04:45:09.835Z,20.50
2022-07-28T04:47:37.029Z,20.80
2022-07-28T04:50:05.044Z,21.50
2022-07-28T04:52:31.634Z,21.96
2022-07-28T04:54:58.205Z,22.26
2022-07-28T04:57:28.004Z,22.80
2022-07-28T04:59:56.647Z,21.45
2022-07-28T05:02:23.421Z,21.65
2022-07-28T05:04:50.569Z,22.30
2022-07-28T05:07:17.236Z,21.65
2022-07-28T05:09:43.934Z,20.86
2022-07-28T05:12:10.917Z,20.85
2022-07-28T05:14:37.532Z,21.76
2022-07-28T05:17:04.408Z,22.17
2022-07-28T05:19:31.052Z,22.22
2022-07-28T05:21:57.546Z,21.57
2022-07-28T05:24:24.174Z,20.53
2022-07-28T05:26:50.752Z,20.65
2022-07-28T05:29:17.275Z,20.52
2022-07-28T05:31:43.869Z,20.34
2022-07-28T05:34:10.543Z,19.49
2022-07-28T05:36:38.369Z,18.77
2022-07-28T05:39:05.021Z,18.46
2022-07-28T05:41:31.540Z,18.15
2022-07-28T05:43:58.495Z,18.25
2022-07-28T05:46:25.075Z,19.41
2022-07-28T05:48:51.976Z,21.80
2022-07-28T05:51:19.209Z,23.99
2022-07-28T05:53:45.736Z,24.31
2022-07-28T05:56:14.350Z,24.16
2022-07-28T05:58:40.900Z,23.16
2022-07-28T06:01:07.532Z,22.85
2022-07-28T06:03:39.792Z,23.00
2022-07-28T06:06:16.021Z,23.24
2022-07-28T06:08:43.901Z,23.31
2022-07-28T06:11:11.710Z,22.50
2022-07-28T06:13:39.727Z,23.03
2022-07-28T06:16:11.186Z,23.76
2022-07-28T06:18:39.665Z,24.79
2022-07-28T06:21:06.341Z,25.59
2022-07-28T06:23:32.845Z,25.84
2022-07-28T06:25:59.412Z,25.71
2022-07-28T06:28:25.954Z,26.57
2022-07-28T06:30:52.487Z,27.39
2022-07-28T06:33:19.176Z,27.72
2022-07-28T06:35:48.321Z,27.41
2022-07-28T06:38:19.537Z,27.86
2022-07-28T06:40:46.403Z,27.71
2022-07-28T06:43:14.652Z,28.01
2022-07-28T06:45:41.434Z,28.05
2022-07-28T06:48:09.343Z,27.88
2022-07-28T06:50:41.511Z,27.68
2022-07-28T06:53:09.508Z,28.39
2022-07-28T06:55:37.745Z,27.38
2022-07-28T06:58:04.955Z,27.19
2022-07-28T07:00:32.108Z,28.78
2022-07-28T07:03:00.627Z,28.88
2022-07-28T07:05:32.405Z,28.31
2022-07-28T07:08:00.610Z,29.75
2022-07-28T07:10:27.384Z,30.76
2022-07-28T07:12:54.065Z,31.42
2022-07-28T07:15:21.944Z,30.35
2022-07-28T07:17:48.710Z,30.50
2022-07-28T07:20:18.162Z,31.10
2022-07-28T07:22:46.364Z,32.13
2022-07-28T07:25:16.560Z,30.65
2022-07-28T07:27:44.079Z,31.22
2022-07-28T07:30:12.865Z,31.70
2022-07-28T07:32:40.404Z,32.31
2022-07-28T07:35:07.353Z,32.33
2022-07-28T07:37:34.025Z,33.32
2022-07-28T07:40:01.460Z,33.54
2022-07-28T07:42:28.130Z,34.35
2022-07-28T07:44:55.094Z,32.51
2022-07-28T07:47:21.636Z,33.20
2022-07-28T07:49:49.478Z,31.61
2022-07-28T07:52:16.055Z,31.75
2022-07-28T07:54:43.017Z,30.44
2022-07-28T07:57:10.431Z,30.34
2022-07-28T07:59:37.068Z,30.95
2022-07-28T08:02:04.291Z,31.53
2022-07-28T08:04:30.932Z,32.57
2022-07-28T08:06:57.546Z,30.44
2022-07-28T08:09:24.228Z,30.94
2022-07-28T08:11:52.267Z,32.01
2022-07-28T08:14:18.991Z,30.67
2022-07-28T08:16:45.594Z,30.91
2022-07-28T08:19:12.473Z,30.92
2022-07-28T08:21:40.509Z,30.68
2022-07-28T08:24:07.491Z,30.70
2022-07-28T08:26:35.688Z,32.37
2022-07-28T08:29:02.231Z,32.78
2022-07-28T08:31:28.837Z,32.55
2022-07-28T08:33:58.414Z,32.86
2022-07-28T08:36:25.118Z,32.11
2022-07-28T08:38:51.948Z,31.68
2022-07-28T08:41:48.572Z,30.59
2022-07-28T08:44:18.754Z,32.40
2022-07-28T08:46:48.721Z,32.10
2022-07-28T08:49:16.110Z,31.34
2022-07-28T08:51:49.686Z,32.82
2022-07-28T08:54:20.305Z,32.31
2022-07-28T08:56:48.030Z,31.48
2022-07-28T08:59:15.340Z,32.22
2022-07-28T09:01:42.315Z,33.16
2022-07-28T09:04:09.328Z,33.21
2022-07-28T09:06:42.012Z,33.18
2022-07-28T09:09:09.872Z,33.81
2022-07-28T09:11:37.641Z,32.57
2022-07-28T09:14:05.627Z,32.65
2022-07-28T09:16:32.445Z,33.41
2022-07-28T09:18:59.100Z,32.66
2022-07-28T09:21:25.675Z,31.21
2022-07-28T09:23:53.307Z,30.87
2022-07-28T09:26:19.987Z,31.89
2022-07-28T09:28:55.435Z,33.43
2022-07-28T09:31:23.365Z,33.41
2022-07-28T09:34:08.238Z,32.42
2022-07-28T09:36:40.736Z,32.96
2022-07-28T09:39:07.720Z,33.04
2022-07-28T09:41:55.183Z,31.89
2022-07-28T09:44:23.462Z,31.30
2022-07-28T09:46:51.064Z,30.51
2022-07-28T09:49:17.998Z,32.30
2022-07-28T09:52:05.588Z,32.26
2022-07-28T09:54:33.559Z,32.45
2022-07-28T09:57:01.948Z,31.56
2022-07-28T09:59:44.170Z,31.38
2022-07-28T10:02:27.164Z,31.72
2022-07-28T10:04:54.370Z,30.67
2022-07-28T10:07:21.771Z,30.99
2022-07-28T10:10:20.220Z,29.62
2022-07-28T10:12:46.989Z,30.08
2022-07-28T10:15:34.867Z,30.28
2022-07-28T10:18:01.893Z,30.64
2022-07-28T10:20:29.032Z,31.44
2022-07-28T10:23:02.622Z,32.03
2022-07-28T10:25:32.872Z,31.18
2022-07-28T10:28:02.398Z,31.50
2022-07-28T10:30:31.650Z,32.01
2022-07-28T10:32:59.838Z,32.14
2022-07-28T10:35:28.047Z,31.86
2022-07-28T10:37:59.495Z,32.65
2022-07-28T10:40:29.835Z,31.71
2022-07-28T10:42:56.754Z,32.85
2022-07-28T10:45:32.653Z,32.19
2022-07-28T10:48:09.183Z,33.36
2022-07-28T10:50:39.005Z,32.33
2022-07-28T10:53:07.954Z,32.32
2022-07-28T10:55:38.368Z,32.74
2022-07-28T10:59:06.161Z,33.65
2022-07-28T11:01:50.168Z,34.19
2022-07-28T11:04:41.693Z,33.65
2022-07-28T11:07:13.079Z,33.07
2022-07-28T11:09:40.121Z,33.82
2022-07-28T11:12:09.755Z,33.20
2022-07-28T11:14:39.495Z,32.50
2022-07-28T11:17:10.444Z,33.83
2022-07-28T11:22:34.305Z,32.13
2022-07-28T11:25:20.846Z,31.77
2022-07-28T11:27:50.288Z,32.23
2022-07-28T11:30:21.250Z,32.63
2022-07-28T11:32:50.760Z,32.37
2022-07-28T11:35:19.400Z,33.00
2022-07-28T11:38:01.116Z,32.73
2022-07-28T11:40:35.096Z,32.74
2022-07-28T11:43:33.999Z,32.78
2022-07-28T11:46:07.603Z,32.42
2022-07-28T11:48:37.704Z,33.16
2022-07-28T11:51:04.317Z,32.46
2022-07-28T11:53:49.911Z,33.10
2022-07-28T11:56:24.507Z,33.41
2022-07-28T11:58:59.622Z,32.81
2022-07-28T12:01:27.098Z,31.84
2022-07-28T12:03:56.820Z,33.13
2022-07-28T12:06:36.693Z,31.97
2022-07-28T12:09:06.210Z,32.06
2022-07-28T12:11:38.042Z,32.93
2022-07-28T12:14:09.500Z,32.89
2022-07-28T12:16:39.848Z,32.89
2022-07-28T12:19:08.017Z,32.08
2022-07-28T12:21:46.147Z,31.88
2022-07-28T12:24:21.037Z,31.98
2022-07-28T12:26:49.931Z,32.76
2022-07-28T12:29:17.788Z,31.79
2022-07-28T12:32:12.944Z,32.24
2022-07-28T12:34:44.374Z,32.24
2022-07-28T12:37:14.011Z,32.95
2022-07-28T12:39:42.957Z,33.47
2022-07-28T12:42:11.477Z,33.10
2022-07-28T12:44:43.714Z,33.50
2022-07-28T12:47:15.971Z,32.70
2022-07-28T12:49:44.656Z,32.32
2022-07-28T12:52:22.912Z,33.07
2022-07-28T12:54:53.716Z,32.00
2022-07-28T12:57:51.622Z,32.18
2022-07-28T13:00:24.646Z,31.97
2022-07-28T13:02:53.433Z,32.16
2022-07-28T13:05:56.082Z,31.92
2022-07-28T13:08:24.246Z,32.26
2022-07-28T13:10:57.195Z,32.07
2022-07-28T13:13:25.289Z,31.86
2022-07-28T13:16:14.670Z,30.89
2022-07-28T13:18:50.146Z,31.59
2022-07-28T13:21:36.610Z,31.35
2022-07-28T13:24:03.696Z,30.29
2022-07-28T13:26:31.784Z,30.70
2022-07-28T13:29:02.369Z,31.37
2022-07-28T13:31:32.255Z,31.11
2022-07-28T13:33:59.290Z,31.14
2022-07-28T13:36:25.814Z,29.77
2022-07-28T13:38:55.214Z,29.41
2022-07-28T13:41:21.874Z,28.70
2022-07-28T13:43:49.135Z,28.64
2022-07-28T13:46:20.886Z,27.95
2022-07-28T13:48:57.654Z,27.92
2022-07-28T13:51:24.757Z,28.05
2022-07-28T13:53:51.736Z,27.72
2022-07-28T13:56:36.787Z,28.23
2022-07-28T13:59:08.661Z,28.33
2022-07-28T14:01:36.284Z,28.09
2022-07-28T14:04:04.436Z,28.12
2022-07-28T14:06:30.983Z,28.22
2022-07-28T14:08:57.769Z,28.12
2022-07-28T14:11:24.744Z,28.41
2022-07-28T14:13:54.086Z,28.55
2022-07-28T14:16:22.047Z,28.59
2022-07-28T14:18:49.449Z,28.40
2022-07-28T14:21:16.945Z,28.36
2022-07-28T14:23:45.804Z,28.45
2022-07-28T14:26:35.053Z,28.27
2022-07-28T14:29:01.960Z,28.01
2022-07-28T14:31:29.580Z,27.99
2022-07-28T14:33:56.805Z,28.14
2022-07-28T14:36:23.332Z,28.23
2022-07-28T14:38:53.597Z,28.23
2022-07-28T14:41:20.604Z,28.15
2022-07-28T14:43:47.186Z,27.90
2022-07-28T14:46:20.660Z,27.96
2022-07-28T14:48:48.027Z,28.22
2022-07-28T14:51:14.633Z,28.07
2022-07-28T14:53:43.442Z,28.05
2022-07-28T14:56:18.217Z,27.81
2022-07-28T14:58:44.822Z,27.80
2022-07-28T15:01:11.422Z,27.79
2022-07-28T15:03:38.033Z,27.69
2022-07-28T15:06:10.222Z,27.71
2022-07-28T15:08:36.743Z,27.66
2022-07-28T15:11:03.417Z,27.77
2022-07-28T15:13:29.970Z,27.70
2022-07-28T15:15:57.039Z,27.88
2022-07-28T15:18:24.506Z,27.82
2022-07-28T15:20:51.335Z,28.03
2022-07-28T15:23:17.948Z,27.84
2022-07-28T15:25:46.440Z,27.92
2022-07-28T15:28:17.524Z,27.81
2022-07-28T15:30:51.656Z,27.67
2022-07-28T15:33:20.431Z,27.67
2022-07-28T15:35:58.113Z,27.61
2022-07-28T15:38:27.742Z,27.61
2022-07-28T15:40:55.016Z,27.50
2022-07-28T15:43:23.619Z,27.64
2022-07-28T15:45:50.696Z,27.71
2022-07-28T15:48:17.289Z,27.63
2022-07-28T15:50:45.504Z,27.46
2022-07-28T15:53:12.076Z,27.55
2022-07-28T15:55:38.876Z,27.36
2022-07-28T15:58:05.501Z,27.39
2022-07-28T16:00:33.824Z,27.37
2022-07-28T16:03:01.483Z,27.40
2022-07-28T16:05:28.677Z,27.37
2022-07-28T16:07:58.366Z,27.23
2022-07-28T16:10:27.115Z,27.22
2022-07-28T16:12:55.924Z,27.18
2022-07-28T16:15:24.969Z,27.15
2022-07-28T16:17:51.492Z,27.17
2022-07-28T16:20:18.052Z,27.27
2022-07-28T16:22:44.628Z,27.29
2022-07-28T16:25:16.520Z,27.35
2022-07-28T16:27:44.613Z,27.37
2022-07-28T16:30:11.631Z,27.42
2022-07-28T16:32:39.343Z,27.53
2022-07-28T16:35:07.272Z,27.51
2022-07-28T16:37:35.512Z,27.68
2022-07-28T16:40:04.711Z,27.73
2022-07-28T16:42:32.156Z,27.78
2022-07-28T16:44:58.951Z,27.91
2022-07-28T16:47:25.897Z,28.00
2022-07-28T16:49:52.389Z,28.05
2022-07-28T16:52:20.911Z,27.90
2022-07-28T16:54:47.764Z,27.86
2022-07-28T16:57:14.846Z,27.70
2022-07-28T16:59:48.116Z,27.81
2022-07-28T17:02:15.491Z,27.75
2022-07-28T17:04:42.470Z,27.86
2022-07-28T17:07:13.473Z,27.73
2022-07-28T17:09:41.523Z,27.62
2022-07-28T17:12:09.248Z,27.71
2022-07-28T17:14:40.854Z,27.66
2022-07-28T17:17:07.463Z,27.65
2022-07-28T17:19:33.972Z,27.65
2022-07-28T17:22:01.941Z,27.53
2022-07-28T17:24:28.524Z,27.33
2022-07-28T17:29:42.695Z,27.39
2022-07-28T17:32:09.532Z,27.28
2022-07-28T17:34:37.551Z,27.18
2022-07-28T17:37:05.185Z,27.20
2022-07-28T17:39:32.210Z,27.22
2022-07-28T17:41:58.962Z,27.22
2022-07-28T17:44:25.759Z,27.12
2022-07-28T17:46:52.343Z,27.04
2022-07-28T17:49:19.080Z,26.89
2022-07-28T17:51:45.680Z,26.82
2022-07-28T17:54:15.548Z,26.76
2022-07-28T17:56:42.557Z,26.78
2022-07-28T17:59:10.470Z,26.71
2022-07-28T18:01:38.967Z,26.62
2022-07-28T18:04:08.958Z,26.50
2022-07-28T18:06:37.182Z,26.50
2022-07-28T18:09:07.896Z,26.37
2022-07-28T18:11:57.610Z,26.39
2022-07-28T18:14:27.168Z,26.14
2022-07-28T18:16:53.786Z,26.05
2022-07-28T18:19:20.335Z,25.96
2022-07-28T18:21:46.812Z,25.80
2022-07-28T18:24:13.684Z,25.65
2022-07-28T18:26:40.772Z,25.74
2022-07-28T18:29:07.742Z,25.42
2022-07-28T18:31:34.295Z,25.30
2022-07-28T18:34:00.898Z,25.14
2022-07-28T18:36:27.409Z,25.10
2022-07-28T18:38:53.967Z,24.95
2022-07-28T18:41:20.501Z,24.86
2022-07-28T18:43:47.012Z,24.82
2022-07-28T18:46:13.892Z,24.73
2022-07-28T18:48:40.500Z,24.66
2022-07-28T18:51:07.222Z,24.55
2022-07-28T18:53:33.836Z,24.45
2022-07-28T18:56:00.361Z,24.32
2022-07-28T18:58:26.877Z,24.21
2022-07-28T19:00:54.654Z,24.14
2022-07-28T19:03:21.298Z,24.00
2022-07-28T19:05:47.871Z,23.84
2022-07-28T19:08:14.449Z,23.76
2022-07-28T19:10:40.964Z,23.63
2022-07-28T19:13:12.344Z,23.51
2022-07-28T19:15:40.853Z,23.38
2022-07-28T19:18:09.869Z,23.28
2022-07-28T19:20:37.105Z,23.16
2022-07-28T19:23:05.458Z,23.04
2022-07-28T19:25:32.433Z,22.92
2022-07-28T19:27:59.067Z,22.86
2022-07-28T19:30:25.655Z,22.78
2022-07-28T19:32:52.202Z,22.70
2022-07-28T19:35:18.973Z,22.56
2022-07-28T19:37:45.601Z,22.48
2022-07-28T19:40:13.314Z,22.47
2022-07-28T19:42:39.902Z,22.44
2022-07-28T19:45:07.296Z,22.33
2022-07-28T19:47:36.904Z,22.27
2022-07-28T19:50:05.175Z,22.17
2022-07-28T19:52:31.966Z,22.15
2022-07-28T19:54:58.499Z,22.18
2022-07-28T19:57:26.706Z,22.11
2022-07-28T19:59:53.257Z,22.05
2022-07-28T20:02:19.851Z,22.02
2022-07-28T20:04:46.480Z,21.95
2022-07-28T20:07:12.974Z,21.96
2022-07-28T20:09:39.836Z,21.95
2022-07-28T20:12:07.820Z,21.96
2022-07-28T20:14:36.181Z,21.92
2022-07-28T20:17:02.850Z,21.88
2022-07-28T20:19:30.107Z,21.86
2022-07-28T20:21:57.253Z,21.84
2022-07-28T20:24:24.043Z,21.78
2022-07-28T20:26:50.568Z,21.74
2022-07-28T20:29:17.142Z,21.74
2022-07-28T20:31:43.909Z,21.65
2022-07-28T20:34:12.977Z,21.55
2022-07-28T20:36:39.719Z,21.54
2022-07-28T20:39:27.400Z,21.53
2022-07-28T20:41:52.821Z,21.56
2022-07-28T20:44:28.719Z,21.51
2022-07-28T20:46:58.621Z,21.38
2022-07-28T20:49:25.286Z,21.38
2022-07-28T20:51:51.865Z,21.39
2022-07-28T20:54:19.002Z,21.32
2022-07-28T20:56:45.600Z,21.22
2022-07-28T20:59:12.184Z,21.20
2022-07-28T21:01:39.193Z,21.20
2022-07-28T21:04:05.979Z,21.22
2022-07-28T21:06:37.912Z,21.13
2022-07-28T21:09:05.172Z,21.17
2022-07-28T21:11:34.957Z,21.11
2022-07-28T21:14:02.074Z,21.15
2022-07-28T21:16:29.296Z,21.10
2022-07-28T21:18:55.987Z,21.07
2022-07-28T21:21:22.897Z,21.05
2022-07-28T21:23:49.791Z,20.94
2022-07-28T21:26:16.990Z,20.91
2022-07-28T21:29:02.129Z,20.83
2022-07-28T21:31:28.669Z,20.76
2022-07-28T21:33:55.381Z,20.73
2022-07-28T21:36:22.046Z,20.68
2022-07-28T21:38:49.241Z,20.70
2022-07-28T21:41:16.334Z,20.70
2022-07-28T21:43:42.818Z,20.65
2022-07-28T21:46:09.494Z,20.60
2022-07-28T21:48:36.157Z,20.60
2022-07-28T21:51:02.798Z,20.62
2022-07-28T21:53:29.359Z,20.59
2022-07-28T21:55:57.177Z,20.60
2022-07-28T21:58:24.382Z,20.59
2022-07-28T22:00:50.998Z,20.55
2022-07-28T22:03:17.543Z,20.54
2022-07-28T22:05:44.127Z,20.56
2022-07-28T22:08:10.862Z,20.57
2022-07-28T22:10:37.369Z,20.36
2022-07-28T22:13:04.021Z,20.29
2022-07-28T22:15:30.563Z,20.27
2022-07-28T22:17:57.137Z,20.06
2022-07-28T22:20:23.682Z,20.06
2022-07-28T22:22:50.268Z,19.98
2022-07-28T22:25:16.812Z,19.94
2022-07-28T22:27:43.330Z,19.93
2022-07-28T22:30:10.151Z,19.99
2022-07-28T22:32:36.764Z,19.99
2022-07-28T22:35:04.489Z,20.00
2022-07-28T22:37:31.071Z,19.89
2022-07-28T22:39:57.622Z,19.93
2022-07-28T22:42:24.175Z,20.02
2022-07-28T22:44:50.699Z,19.99
2022-07-28T22:47:17.311Z,20.06
2022-07-28T22:49:43.892Z,20.15
2022-07-28T22:52:10.418Z,20.10
2022-07-28T22:54:40.393Z,20.10
2022-07-28T22:57:07.231Z,20.10
2022-07-28T22:59:35.047Z,20.02
2022-07-28T23:02:06.775Z,20.04
2022-07-28T23:04:33.573Z,20.02
2022-07-28T23:07:00.822Z,20.06
2022-07-28T23:09:27.532Z,20.09
2022-07-28T23:11:56.484Z,20.07
2022-07-28T23:14:25.296Z,20.06
2022-07-28T23:16:51.798Z,20.12
2022-07-28T23:19:18.724Z,20.13
2022-07-28T23:21:45.450Z,20.18
2022-07-28T23:24:12.846Z,20.23
2022-07-28T23:26:39.657Z,20.31
2022-07-28T23:29:06.218Z,20.32
2022-07-28T23:31:32.850Z,20.34
2022-07-28T23:33:59.658Z,20.40
2022-07-28T23:36:27.742Z,20.43
2022-07-28T23:38:57.525Z,20.43
2022-07-28T23:41:24.429Z,20.49
2022-07-28T23:43:52.290Z,20.47
2022-07-28T23:46:19.491Z,20.40
2022-07-28T23:48:47.710Z,20.39
2022-07-28T23:51:21.528Z,20.35
2022-07-28T23:53:54.355Z,20.35
2022-07-28T23:56:28.395Z,20.40
2022-07-28T23:58:54.975Z,20.28
